Bellevue, Illinois
Current Conditions -  °F | °C
As of 7:54 PM on Saturday 25 Oct 2014 (Local Time) from KPIA Reporting Station
Clear Clear  
Wind Chill: 62°   Ceiling: Unl
Heat Index: 62°   Visibility: 10mi
Dew Point: 40°   Wind: 3mph
Humidity: 44%   Direction: 290°WNW
Pressure: 30.01"   Gusts: NA
Location:  40.7064°N, 89.6585°W
Report Text: KPIA 260054Z 29003KT 10SM CLR 17/04 A3001 RMK AO2 SLP161 T01670044
Loading
Personal Weather Stations






























Interactive Weather Map
Tropical Storm Tracking
New forecast layout! Learn more

10-Day Weather Forecast

Advertisements
Track Severe Weather on mobile